Terminal Aerodrome Forecast
Issued by NWS Topeka, KS

Home | Current Version | Previous Version | Graphics & Text | Print | Product List | Glossary On
Versions: 1 2 3 4 5 6 7 8 9 10 11 12 13 14 15 16 17 18 19 20
000
FTUS43 KTOP 240520
TAFTOP
TAF
KTOP 240520Z 2406/2506 17017G26KT P6SM BKN250
     FM241400 17014G21KT P6SM SCT020 BKN035
     FM241900 16012KT P6SM VCTS BKN040CB
     FM250000 13008KT P6SM VCTS BKN060CB=

USA.gov is the U.S. government's official web portal to all federal, state and local government web resources and services.